This is the latest recevied weather packets stored in our database for station/object DF7PN-WX. If no packets are shown the sender has not sent any weather packets the latest 10 day(s).
| Time | Temp. | Humidity | Pressure | Rain* | Wind** | Luminosity | Snow |
|---|---|---|---|---|---|---|---|
| 1777211284 | 17.22° C | 34% | 1023.1 hPa | - | - | - | - |
| 1777210683 | 17.22° C | 34% | 1023.3 hPa | - | - | - | - |
| 1777210083 | 16.67° C | 32% | 1023.3 hPa | - | - | - | - |
| 1777208283 | 16.11° C | 34% | 1023.6 hPa | - | - | - | - |
| 1777207083 | 16.11° C | 39% | 1023.7 hPa | - | - | - | - |
| 1777206783 | 16.11° C | 38% | 1023.7 hPa | - | - | - | - |
| 1777206482 | 16.11° C | 39% | 1023.7 hPa | - | - | - | - |
| 1777206183 | 16.67° C | 39% | 1023.7 hPa | - | - | - | - |
| 1777205882 | 16.11° C | 39% | 1023.8 hPa | - | - | - | - |
| 1777205282 | 16.11° C | 40% | 1023.9 hPa | - | - | - | - |
| 1777203482 | 15° C | 44% | 1024.1 hPa | - | - | - | - |
| 1777203182 | 15° C | 46% | 1024.1 hPa | - | - | - | - |
| 1777202882 | 15° C | 45% | 1024.2 hPa | - | - | - | - |
| 1777202582 | 15° C | 47% | 1024.2 hPa | - | - | - | - |
| 1777202282 | 15° C | 48% | 1024.2 hPa | - | - | - | - |
| 1777201681 | 14.44° C | 49% | 1024.3 hPa | - | - | - | - |
| 1777201381 | 14.44° C | 48% | 1024.3 hPa | - | - | - | - |
| 1777201081 | 14.44° C | 49% | 1024.3 hPa | - | - | - | - |
| 1777199881 | 13.89° C | 49% | 1024.6 hPa | - | - | - | - |
| 1777199581 | 13.89° C | 50% | 1024.5 hPa | - | - | - | - |
| 1777199281 | 13.89° C | 50% | 1024.5 hPa | - | - | - | - |
| 1777198681 | 13.89° C | 50% | 1024.5 hPa | - | - | - | - |
| 1777198381 | 13.89° C | 49% | 1024.6 hPa | - | - | - | - |
| 1777198081 | 13.89° C | 51% | 1024.6 hPa | - | - | - | - |
| 1777197780 | 13.33° C | 52% | 1024.7 hPa | - | - | - | - |
* Rain since midnight (hover to see other rain measurements)
** Current wind speed in m/s (hover to see current wind gust speed)